Brisbane, California
Current Conditions -  °F | °C
As of 9:56 AM on Sunday 25 Jan 2015 (Local Time) from KSFO Reporting Station
Few Clouds Few Clouds  
Wind Chill: 51°   Ceiling: Unl
Heat Index: 51°   Visibility: 10mi
Dew Point: 46°   Wind: 6mph
Humidity: 83%   Direction: 90°E
Pressure: 30.15"   Gusts: NA
Location:  37.68°N, 122.4°W
Report Text: KSFO 251756Z 09005KT 10SM FEW011 11/08 A3015 RMK AO2 SLP209 T01060078 10111 20094 53002
Loading
Personal Weather Stations






























Interactive Weather Map New forecast layout! Learn more

10-Day Weather Forecast

Advertisements
Track Severe Weather on mobile